Time;durP1;ratioP1;P1;durP2;ratioP2;P2;SDS_P1;SDS_P2;PMS_P1;PMS_P2;Temp;Humidity;BMP_temperature;BMP_pressure;BME280_temperature;BME280_humidity;BME280_pressure;Samples;Min_cycle;Max_cycle;Signal;HPM_P1;HPM_P2
2022/03/15 03:55:14;;;;;;;55.70;25.13;;;;;;;-2.39;59.54;100549.03;4482508;77;23857;-85
2022/03/15 04:01:24;;;;;;;61.23;25.47;;;;;;;-2.54;60.16;100549.41;4234819;80;90175;-84
2022/03/15 04:07:29;;;;;;;77.50;31.80;;;;;;;-2.43;60.67;100540.41;4261832;83;21083;-84
2022/03/15 04:13:47;;;;;;;73.80;29.70;;;;;;;-2.40;60.34;100535.87;4209888;82;295292;-83
2022/03/15 04:19:54;;;;;;;59.97;25.53;;;;;;;-2.47;60.55;100533.92;4060893;86;21088;-83
2022/03/15 04:25:55;;;;;;;56.87;23.23;;;;;;;-2.37;60.76;100523.30;4089290;86;21114;-83
2022/03/15 04:31:56;;;;;;;60.17;24.40;;;;;;;-2.41;60.97;100533.72;4090679;86;21064;-82
2022/03/15 04:38:00;;;;;;;65.53;28.03;;;;;;;-2.44;61.06;100518.66;4117656;85;21052;-81
2022/03/15 04:44:03;;;;;;;64.47;27.97;;;;;;;-2.49;60.95;100522.66;4119971;85;21141;-81
2022/03/15 04:50:05;;;;;;;77.93;33.60;;;;;;;-2.74;60.86;100529.09;4126433;85;21098;-82
2022/03/15 04:56:08;;;;;;;88.20;35.73;;;;;;;-2.78;62.15;100548.05;4096253;85;21051;-81
2022/03/15 05:02:10;;;;;;;82.70;33.17;;;;;;;-2.62;62.11;100552.53;4098907;86;21083;-81
2022/03/15 05:08:26;;;;;;;85.57;34.23;;;;;;;-2.69;61.74;100548.70;4086384;86;21406;-81
2022/03/15 05:14:28;;;;;;;72.25;30.97;;;;;;;-2.75;62.21;100538.98;4097741;86;21106;-81
2022/03/15 05:20:30;;;;;;;83.63;35.03;;;;;;;-2.71;62.65;100537.97;4092938;86;21025;-81
2022/03/15 05:26:34;;;;;;;98.90;36.83;;;;;;;-2.58;62.59;100543.73;4102405;86;21028;-82
2022/03/15 05:32:37;;;;;;;92.37;39.23;;;;;;;-2.64;62.57;100530.00;4078836;86;21059;-81
2022/03/15 05:38:39;;;;;;;87.83;39.00;;;;;;;-2.57;62.99;100531.15;4092201;85;21936;-81
2022/03/15 05:44:40;;;;;;;90.43;36.07;;;;;;;-2.30;63.06;100532.75;4096587;86;21933;-83
2022/03/15 05:50:42;;;;;;;82.70;35.80;;;;;;;-2.13;63.36;100526.74;4082222;86;22003;-82
2022/03/15 05:56:45;;;;;;;87.90;36.20;;;;;;;-2.01;63.25;100535.45;4076651;86;21653;-83
2022/03/15 06:02:46;;;;;;;101.20;39.50;;;;;;;-1.94;63.63;100536.56;4043403;86;21069;-82
2022/03/15 06:08:48;;;;;;;103.57;41.03;;;;;;;-1.68;63.78;100539.73;4058083;86;21991;-82
2022/03/15 06:14:49;;;;;;;94.63;41.27;;;;;;;-1.21;63.91;100547.81;4067780;86;21081;-82
2022/03/15 06:20:52;;;;;;;92.53;41.90;;;;;;;-0.62;63.89;100541.90;4061272;86;21013;-82
2022/03/15 06:26:59;;;;;;;87.60;40.80;;;;;;;0.00;63.68;100526.39;4060885;86;20991;-82
2022/03/15 06:33:00;;;;;;;106.58;41.35;;;;;;;1.73;62.51;100527.76;4069405;85;20989;-82
2022/03/15 06:39:05;;;;;;;91.97;39.05;;;;;;;1.73;62.51;100527.76;4069422;86;21052;-82
2022/03/15 06:45:10;;;;;;;86.00;39.33;;;;;;;2.47;62.20;100538.25;4068624;85;21570;-82
2022/03/15 06:51:12;;;;;;;71.02;35.28;;;;;;;2.80;60.88;100531.41;4158456;81;35991;-84
2022/03/15 06:57:15;;;;;;;73.90;35.75;;;;;;;3.18;60.79;100531.80;4285976;81;21019;-83
2022/03/15 07:03:16;;;;;;;68.17;33.55;;;;;;;3.65;60.26;100528.77;4297686;81;21003;-84
2022/03/15 07:09:18;;;;;;;66.60;32.70;;;;;;;3.90;59.57;100533.81;4298805;81;21654;-83
2022/03/15 07:15:36;;;;;;;76.82;38.13;;;;;;;4.11;59.37;100538.63;4310607;81;21039;-83
2022/03/15 07:21:54;;;;;;;78.07;37.23;;;;;;;4.42;59.13;100533.48;4297316;81;21473;-83
2022/03/15 07:27:57;;;;;;;64.03;31.62;;;;;;;4.80;58.70;100530.92;4289534;82;21265;-82
2022/03/15 07:34:21;;;;;;;62.67;29.98;;;;;;;5.13;58.18;100531.09;4300361;81;21019;-82
2022/03/15 07:40:42;;;;;;;43.45;22.77;;;;;;;5.58;57.90;100530.13;4290613;81;21525;-82
2022/03/15 07:54:20;;;;;;;29.65;17.12;;;;;;;6.90;56.57;100521.20;4325595;80;21586;-85
2022/03/15 08:00:42;;;;;;;32.47;18.43;;;;;;;7.62;56.30;100519.65;4315870;81;20975;-85
2022/03/15 08:06:47;;;;;;;49.35;21.50;;;;;;;8.42;54.91;100512.20;4336377;82;21094;-86
2022/03/15 08:26:57;;;;;;;44.98;23.40;;;;;;;10.00;53.48;100489.10;4332573;80;21542;-86
2022/03/15 08:33:27;;;;;;;48.98;27.22;;;;;;;10.47;51.36;100493.20;4315032;81;21003;-87
2022/03/15 08:53:19;;;;;;;47.62;29.75;;;;;;;12.20;49.98;100475.63;4296690;82;21078;-87
2022/03/15 09:06:34;;;;;;;44.30;24.90;;;;;;;13.80;48.56;100462.14;4277482;82;22452;-87
2022/03/15 09:12:56;;;;;;;;;;;;;;;14.53;47.45;100445.53;4254268;82;21043;-88
2022/03/15 09:19:20;;;;;;;25.43;15.53;;;;;;;15.17;43.68;100444.06;4256532;82;20154;-88
2022/03/15 09:25:39;;;;;;;23.60;14.50;;;;;;;15.89;45.08;100439.99;4285695;82;21562;-88
2022/03/15 09:31:51;;;;;;;21.42;14.80;;;;;;;16.57;44.03;100423.02;4278514;82;21058;-89
2022/03/15 09:59:36;;;;;;;19.07;11.53;;;;;;;18.69;40.28;100389.93;3958782;86;21117;-88
2022/03/15 10:12:31;;;;;;;15.55;10.63;;;;;;;19.61;37.76;100379.50;4067264;85;21031;-89
2022/03/15 10:25:20;;;;;;;16.80;10.72;;;;;;;20.37;36.51;100355.11;4148500;82;21055;-89
2022/03/15 10:31:29;;;;;;;15.55;10.63;;;;;;;20.66;35.53;100340.57;4312528;81;21071;-88
2022/03/15 10:37:41;;;;;;;14.45;11.03;;;;;;;20.76;31.59;100335.53;4307195;81;21084;-88
2022/03/15 10:43:59;;;;;;;15.70;11.18;;;;;;;20.65;33.44;100313.96;4296391;81;21079;-89
2022/03/15 11:12:11;;;;;;;11.57;9.25;;;;;;;20.66;31.05;100279.95;4228342;83;20999;-89
2022/03/15 11:18:41;;;;;;;;;;;;;;;;;;;;;
2022/03/15 11:38:43;;;;;;;14.83;10.08;;;;;;;21.20;29.12;100206.05;3997988;88;21020;-89
2022/03/15 12:20:00;;;;;;;15.45;9.95;;;;;;;18.97;27.63;100144.94;4359992;80;27049;-89
2022/03/15 12:53:15;;;;;;;14.47;10.13;;;;;;;17.62;28.46;100105.39;4262571;82;21083;-90
2022/03/15 12:59:39;;;;;;;15.23;10.05;;;;;;;17.50;28.15;100094.72;4263925;82;21083;-89
2022/03/15 13:12:48;;;;;;;13.75;9.50;;;;;;;17.42;28.68;100070.16;4250690;82;21083;-87
2022/03/15 13:19:00;;;;;;;16.55;9.98;;;;;;;17.51;28.58;100067.23;4292989;81;21091;-88
2022/03/15 13:25:23;;;;;;;18.25;11.57;;;;;;;17.36;28.56;100053.75;4263425;82;21020;-88
2022/03/15 13:39:05;;;;;;;16.20;9.70;;;;;;;17.12;28.88;100045.03;4241950;82;21139;-89
2022/03/15 13:45:06;;;;;;;13.20;9.13;;;;;;;17.01;28.95;100035.93;4128935;84;21095;-89
2022/03/15 13:51:26;;;;;;;15.90;9.80;;;;;;;16.97;29.22;100035.73;4072837;86;21205;-89
2022/03/15 13:57:34;;;;;;;13.35;9.18;;;;;;;16.92;29.27;100029.99;4142742;84;21188;-89
2022/03/15 14:17:09;;;;;;;26.17;14.98;;;;;;;16.39;29.41;100015.77;4183242;83;21146;-89
2022/03/15 14:43:35;;;;;;;17.57;10.65;;;;;;;16.29;29.49;99986.12;4067282;86;21226;-87
2022/03/15 14:49:55;;;;;;;14.50;8.83;;;;;;;16.20;29.49;99982.94;4049412;86;21149;-88
2022/03/15 15:02:45;;;;;;;14.93;9.93;;;;;;;15.89;29.73;99963.67;4077395;86;21164;-88
2022/03/15 15:09:01;;;;;;;32.60;16.35;;;;;;;15.70;29.86;99958.44;4185973;82;21101;-88
2022/03/15 15:21:54;;;;;;;17.80;10.35;;;;;;;15.50;30.17;99954.38;4202560;83;21823;-88
2022/03/15 15:28:04;;;;;;;19.57;11.43;;;;;;;15.40;30.25;99946.23;4207235;83;21071;-87
2022/03/15 15:34:08;;;;;;;23.87;13.90;;;;;;;15.19;30.39;99932.23;4205369;82;21976;-87
2022/03/15 15:53:39;;;;;;;;;;;;;;;14.58;30.96;99924.44;4185735;83;21073;-88
2022/03/15 16:00:08;;;;;;;20.52;12.88;;;;;;;14.38;31.29;99917.52;4199220;82;20112;-88
2022/03/15 16:13:47;;;;;;;33.63;14.38;;;;;;;13.95;31.63;99904.63;4120863;85;21062;-87
2022/03/15 16:39:59;;;;;;;32.75;18.30;;;;;;;13.13;32.60;99890.73;4080284;85;21063;-87
2022/03/15 16:46:04;;;;;;;34.65;17.67;;;;;;;12.91;32.91;99886.04;4098276;85;21082;-87
2022/03/15 16:52:07;;;;;;;38.28;21.52;;;;;;;12.61;33.27;99885.95;4108300;85;21057;-88
2022/03/15 17:12:07;;;;;;;44.25;25.00;;;;;;;11.78;34.24;99876.34;4148903;83;21051;-88
2022/03/15 17:18:23;;;;;;;60.05;34.48;;;;;;;11.56;34.61;99870.98;4045476;85;21135;-88
2022/03/15 17:24:39;;;;;;;55.85;30.97;;;;;;;11.36;34.91;99869.38;4086220;83;21141;-88
2022/03/15 17:30:39;;;;;;;65.60;39.23;;;;;;;11.02;35.34;99868.81;4121103;85;21122;-87
2022/03/15 17:36:57;;;;;;;72.22;38.02;;;;;;;10.58;35.76;99851.73;3858817;90;22459;-87
2022/03/15 17:43:04;;;;;;;82.65;41.48;;;;;;;10.30;36.29;99837.91;3920519;88;21618;-87
2022/03/15 18:24:23;;;;;;;78.00;41.80;;;;;;;10.13;37.67;99800.72;3964086;86;21074;-87
2022/03/15 18:30:25;;;;;;;93.55;45.67;;;;;;;10.08;37.97;99792.80;3950000;86;21095;-87
2022/03/15 18:36:31;;;;;;;78.97;41.83;;;;;;;10.02;38.15;99781.87;3978928;87;21185;-87
2022/03/15 18:42:36;;;;;;;89.85;46.45;;;;;;;9.96;38.26;99779.73;4006542;86;21131;-88
2022/03/15 18:48:38;;;;;;;75.52;38.55;;;;;;;9.86;38.43;99761.10;4128202;84;21118;-88
2022/03/15 19:01:27;;;;;;;72.97;37.88;;;;;;;9.72;38.75;99762.09;4090614;84;21052;-87
2022/03/15 19:07:49;;;;;;;75.60;36.85;;;;;;;9.64;38.88;99742.55;4082958;85;21047;-87
2022/03/15 19:14:11;;;;;;;82.05;40.52;;;;;;;9.53;39.05;99736.24;4024134;86;21068;-87
2022/03/15 19:27:06;;;;;;;69.75;36.93;;;;;;;9.17;40.08;99721.95;4042461;85;21199;-87
2022/03/15 19:33:09;;;;;;;91.17;45.05;;;;;;;8.81;40.21;99711.95;4090898;84;21028;-87
2022/03/15 19:39:11;;;;;;;90.83;45.52;;;;;;;8.50;40.20;99718.63;4112825;85;21030;-87
2022/03/15 19:45:13;;;;;;;101.05;49.95;;;;;;;8.25;40.83;99703.98;4112264;85;20996;-87
2022/03/15 19:51:20;;;;;;;126.92;58.55;;;;;;;8.09;40.93;99682.59;4092151;83;21014;-87
2022/03/15 19:57:25;;;;;;;;;;;;;;;7.88;41.26;99649.43;4120482;83;21103;-86
2022/03/15 20:03:28;;;;;;;105.55;51.70;;;;;;;7.73;42.59;99638.41;4108022;84;20119;-87
2022/03/15 20:09:29;;;;;;;95.20;47.83;;;;;;;7.42;41.86;99621.23;4101530;84;21044;-87
2022/03/15 20:15:37;;;;;;;90.03;43.48;;;;;;;7.21;42.08;99611.00;4091001;84;21559;-87
2022/03/15 20:21:36;;;;;;;83.78;40.70;;;;;;;7.13;42.58;99602.36;4050194;86;21068;-87
2022/03/15 20:27:39;;;;;;;89.35;40.88;;;;;;;7.12;43.11;99594.53;4007976;86;21646;-87
2022/03/15 20:33:40;;;;;;;87.15;40.75;;;;;;;7.10;43.32;99592.15;4026984;86;21119;-87
2022/03/15 20:39:41;;;;;;;83.15;40.67;;;;;;;7.14;43.06;99593.05;4057247;85;21072;-86
2022/03/15 20:45:46;;;;;;;110.83;52.05;;;;;;;7.13;43.65;99587.39;4019277;86;21091;-87
2022/03/15 20:51:49;;;;;;;100.85;49.90;;;;;;;7.04;43.80;99570.36;4011020;86;21633;-86
2022/03/15 20:57:50;;;;;;;115.30;51.92;;;;;;;6.91;44.00;99574.73;4014869;86;21036;-87
2022/03/15 21:03:52;;;;;;;117.72;54.23;;;;;;;6.79;45.68;99582.87;4023924;86;21022;-86
2022/03/15 21:09:54;;;;;;;119.87;54.23;;;;;;;6.69;45.00;99591.48;4026685;85;21092;-87
2022/03/15 21:15:55;;;;;;;92.88;48.20;;;;;;;6.62;45.70;99602.89;3979273;87;21068;-87
2022/03/15 21:21:57;;;;;;;94.97;47.62;;;;;;;6.55;45.64;99601.81;4027152;86;21100;-86
2022/03/15 21:27:58;;;;;;;92.72;46.68;;;;;;;6.45;46.17;99607.13;4024063;86;21020;-86
2022/03/15 21:33:59;;;;;;;104.23;48.78;;;;;;;6.40;47.04;99599.94;4023285;86;21052;-86
2022/03/15 21:46:40;;;;;;;103.83;48.30;;;;;;;6.11;47.62;99616.88;4024839;86;21033;-84
2022/03/15 23:18:09;;;;;;;103.67;49.40;;;;;;;5.06;51.65;99451.91;4110386;84;21185;-86
2022/03/15 23:24:26;;;;;;;107.27;49.50;;;;;;;5.02;52.07;99446.11;4132254;84;21056;-86
2022/03/15 23:30:35;;;;;;;105.95;49.25;;;;;;;5.01;52.21;99447.23;4123364;84;21542;-86
2022/03/15 23:43:54;;;;;;;103.40;46.95;;;;;;;5.01;53.40;99444.53;4089151;83;21162;-87
2022/03/15 23:49:59;;;;;;;65.93;31.57;;;;;;;5.11;53.36;99423.78;4118351;84;21713;-86
2022/03/15 23:56:00;;;;;;;106.60;49.30;;;;;;;5.12;54.42;99422.68;4097735;84;21122;-86
